Time;durP1;ratioP1;P1;durP2;ratioP2;P2;SDS_P1;SDS_P2;PMS_P1;PMS_P2;Temp;Humidity;BMP_temperature;BMP_pressure;BME280_temperature;BME280_humidity;BME280_pressure;Samples;Min_cycle;Max_cycle;Signal;HPM_P1;HPM_P2
2023/09/13 00:01:27;;;;;;;42.88;22.17;;;19.80;99.90;;;;;;5014372;28;20057;-71
2023/09/13 00:03:53;;;;;;;35.88;23.35;;;19.70;99.90;;;;;;5014977;28;20029;-71
2023/09/13 00:06:19;;;;;;;46.55;22.10;;;19.70;99.90;;;;;;5012956;28;20382;-72
2023/09/13 00:08:45;;;;;;;35.13;23.73;;;19.60;99.90;;;;;;5014791;28;20034;-71
2023/09/13 00:11:11;;;;;;;34.05;23.55;;;19.60;99.90;;;;;;5014387;28;20026;-73
2023/09/13 00:13:36;;;;;;;29.20;22.63;;;19.50;99.90;;;;;;5014485;28;20425;-71
2023/09/13 00:16:03;;;;;;;32.65;22.42;;;19.50;99.90;;;;;;5004904;28;20030;-72
2023/09/13 00:18:29;;;;;;;35.08;23.65;;;19.40;99.90;;;;;;5001153;28;20041;-71
2023/09/13 00:20:55;;;;;;;32.60;23.08;;;19.40;99.90;;;;;;5007686;28;20025;-71
2023/09/13 00:23:21;;;;;;;29.95;22.20;;;19.40;99.90;;;;;;5011983;28;20473;-72
2023/09/13 00:25:47;;;;;;;33.22;22.25;;;19.40;99.90;;;;;;5012021;28;20040;-71
2023/09/13 00:28:12;;;;;;;33.65;22.55;;;19.40;99.90;;;;;;5009529;28;20069;-71
2023/09/13 00:30:38;;;;;;;31.67;23.45;;;19.40;99.90;;;;;;5013093;28;20061;-71
2023/09/13 00:33:04;;;;;;;33.17;24.02;;;19.40;99.90;;;;;;4994455;28;20489;-71
2023/09/13 00:35:30;;;;;;;27.85;22.27;;;19.30;99.90;;;;;;5012862;28;20018;-73
2023/09/13 00:37:56;;;;;;;34.55;25.23;;;19.30;99.90;;;;;;5012377;28;20551;-71
2023/09/13 00:40:22;;;;;;;31.85;22.08;;;19.30;99.90;;;;;;5011487;28;20022;-72
2023/09/13 00:42:48;;;;;;;33.95;23.50;;;19.20;99.90;;;;;;5012387;28;20026;-71
2023/09/13 00:45:14;;;;;;;32.92;23.45;;;19.30;99.90;;;;;;4994299;28;20026;-71
2023/09/13 00:47:41;;;;;;;31.42;22.30;;;19.20;99.90;;;;;;4994757;28;20037;-71
2023/09/13 00:50:09;;;;;;;36.85;23.55;;;19.30;99.90;;;;;;5012259;28;20105;-71
2023/09/13 00:52:37;;;;;;;37.13;23.00;;;19.30;99.90;;;;;;4994907;28;20030;-71
2023/09/13 00:55:07;;;;;;;34.53;24.23;;;19.30;99.90;;;;;;5012404;28;20033;-71
2023/09/13 00:57:34;;;;;;;37.10;23.60;;;19.40;99.90;;;;;;5010855;28;20061;-71
2023/09/13 01:00:06;;;;;;;30.50;23.73;;;19.40;99.90;;;;;;5010882;28;20025;-71
2023/09/13 01:02:31;;;;;;;;;;;19.30;99.90;;;;;;5011627;28;20428;-72
2023/09/13 01:04:58;;;;;;;38.72;22.88;;;19.30;99.90;;;;;;4991043;28;19988;-71
2023/09/13 01:07:23;;;;;;;36.70;24.00;;;19.20;99.90;;;;;;5011265;28;20046;-71
2023/09/13 01:09:49;;;;;;;33.70;23.63;;;19.20;99.90;;;;;;5012297;28;20081;-71
2023/09/13 01:12:15;;;;;;;42.38;23.52;;;19.30;99.90;;;;;;4993737;28;20070;-71
2023/09/13 01:14:43;;;;;;;34.22;23.75;;;19.30;99.90;;;;;;5012249;28;20033;-71
2023/09/13 01:17:20;;;;;;;39.08;24.30;;;19.20;99.90;;;;;;5012011;28;20042;-71
2023/09/13 01:20:17;;;;;;;37.53;23.65;;;19.10;99.90;;;;;;5011337;28;20033;-72
2023/09/13 01:23:07;;;;;;;35.67;23.55;;;19.10;99.90;;;;;;5008278;28;20070;-71
2023/09/13 01:25:55;;;;;;;35.53;22.85;;;19.10;99.90;;;;;;4990881;28;20045;-71
2023/09/13 01:28:51;;;;;;;36.55;24.27;;;19.10;99.90;;;;;;4988665;28;20041;-71
2023/09/13 01:31:20;;;;;;;35.70;24.20;;;19.10;99.90;;;;;;4931897;29;20028;-71
2023/09/13 01:33:47;;;;;;;34.00;22.88;;;19.10;99.90;;;;;;4929202;29;20542;-72
2023/09/13 01:36:13;;;;;;;30.52;22.80;;;19.10;99.90;;;;;;4930985;29;20130;-71
2023/09/13 01:38:40;;;;;;;43.03;22.42;;;19.10;99.90;;;;;;4924807;29;20476;-71
2023/09/13 01:41:25;;;;;;;37.58;23.60;;;19.00;99.90;;;;;;4932141;29;20073;-71
2023/09/13 01:43:54;;;;;;;35.08;22.35;;;18.90;99.90;;;;;;4918167;29;20036;-72
2023/09/13 01:46:27;;;;;;;37.20;23.38;;;18.90;99.90;;;;;;4915682;29;20032;-71
2023/09/13 01:48:57;;;;;;;30.15;23.60;;;18.90;99.90;;;;;;4931461;29;20058;-71
2023/09/13 01:51:25;;;;;;;31.63;23.67;;;18.90;99.90;;;;;;4931776;29;20170;-72
2023/09/13 01:53:51;;;;;;;34.40;23.40;;;18.90;99.90;;;;;;4915711;29;20026;-71
2023/09/13 01:56:21;;;;;;;32.83;22.88;;;18.80;99.90;;;;;;4930994;29;20036;-72
2023/09/13 01:58:48;;;;;;;31.15;22.45;;;18.80;99.90;;;;;;4914034;29;20040;-71
2023/09/13 02:01:15;;;;;;;41.10;24.35;;;18.80;99.90;;;;;;4914982;29;20031;-71
2023/09/13 02:03:40;;;;;;;32.00;23.40;;;18.80;99.90;;;;;;4930992;29;21102;-71
2023/09/13 02:06:06;;;;;;;30.65;22.70;;;18.70;99.90;;;;;;4930422;29;20590;-71
2023/09/13 02:08:32;;;;;;;32.47;24.73;;;18.70;99.90;;;;;;5000460;28;20798;-71
2023/09/13 02:10:58;;;;;;;35.85;24.13;;;18.70;99.90;;;;;;5010737;28;20030;-73
2023/09/13 02:13:25;;;;;;;33.55;23.48;;;18.70;99.90;;;;;;5009866;28;20026;-72
2023/09/13 02:15:50;;;;;;;36.70;23.83;;;18.80;99.90;;;;;;4992420;28;20397;-71
2023/09/13 02:18:17;;;;;;;38.95;25.15;;;18.80;99.90;;;;;;5011004;28;20069;-71
2023/09/13 02:20:44;;;;;;;29.35;23.27;;;18.80;99.90;;;;;;5011136;28;20028;-71
2023/09/13 02:23:10;;;;;;;33.10;23.27;;;18.80;99.90;;;;;;5010698;28;20029;-72
2023/09/13 02:25:37;;;;;;;30.60;23.38;;;18.80;99.90;;;;;;4993065;28;20025;-71
2023/09/13 02:28:04;;;;;;;28.15;22.80;;;18.80;99.90;;;;;;5010792;28;20025;-71
2023/09/13 02:30:33;;;;;;;32.58;23.60;;;18.70;99.90;;;;;;5010704;28;20013;-71
2023/09/13 02:32:59;;;;;;;35.92;24.15;;;18.60;99.90;;;;;;5010498;28;20084;-72
2023/09/13 02:35:25;;;;;;;34.03;23.58;;;18.80;99.90;;;;;;4992944;28;20022;-71
2023/09/13 02:37:52;;;;;;;38.13;27.17;;;18.40;99.90;;;;;;4992867;28;20548;-71
2023/09/13 02:40:17;;;;;;;37.63;30.20;;;18.50;99.90;;;;;;5010218;28;20489;-71
2023/09/13 02:42:43;;;;;;;54.35;37.30;;;18.50;99.90;;;;;;5010848;28;20018;-71
2023/09/13 02:45:09;;;;;;;45.80;35.25;;;18.50;99.90;;;;;;4988854;28;20065;-71
2023/09/13 02:47:35;;;;;;;52.95;37.92;;;18.60;99.90;;;;;;4979832;28;20038;-72
2023/09/13 02:50:02;;;;;;;69.78;45.78;;;18.60;99.90;;;;;;5009390;28;20076;-72
2023/09/13 02:52:32;;;;;;;75.78;52.05;;;18.60;99.90;;;;;;5010025;28;20061;-71
2023/09/13 02:54:58;;;;;;;66.45;42.85;;;18.90;99.90;;;;;;4993038;28;20026;-71
2023/09/13 02:57:24;;;;;;;49.65;37.35;;;18.70;99.90;;;;;;5010322;28;20045;-71
2023/09/13 02:59:50;;;;;;;45.28;31.17;;;18.60;99.90;;;;;;5008969;28;20107;-73
2023/09/13 03:02:17;;;;;;;41.72;29.63;;;18.50;99.90;;;;;;4992542;28;20120;-71
2023/09/13 03:04:43;;;;;;;38.25;26.98;;;18.10;99.90;;;;;;4992885;28;20113;-71
2023/09/13 03:07:10;;;;;;;40.33;24.20;;;18.20;99.90;;;;;;4991172;28;20034;-72
2023/09/13 03:09:36;;;;;;;34.17;22.33;;;18.00;99.90;;;;;;5009786;28;20875;-71
2023/09/13 03:12:05;;;;;;;37.55;22.92;;;18.10;99.90;;;;;;4996118;28;20026;-71
2023/09/13 03:14:32;;;;;;;42.85;23.00;;;18.10;99.90;;;;;;4992208;28;20382;-71
2023/09/13 03:16:58;;;;;;;35.30;22.92;;;18.10;99.90;;;;;;4984487;28;20030;-72
2023/09/13 03:19:24;;;;;;;33.83;22.95;;;18.00;99.90;;;;;;5015456;28;20026;-71
2023/09/13 03:21:50;;;;;;;36.22;23.40;;;18.10;99.90;;;;;;5015474;28;20037;-72
2023/09/13 03:24:16;;;;;;;35.53;23.13;;;18.10;99.90;;;;;;4991489;28;20861;-72
2023/09/13 03:26:42;;;;;;;33.63;23.88;;;18.10;99.90;;;;;;4995453;28;20042;-72
2023/09/13 03:29:09;;;;;;;35.60;23.13;;;18.10;99.90;;;;;;4997707;28;20026;-72
2023/09/13 03:31:36;;;;;;;39.47;23.52;;;18.10;99.90;;;;;;5008563;28;20366;-71
2023/09/13 03:34:06;;;;;;;36.88;24.02;;;18.20;99.90;;;;;;4997261;28;20026;-72
2023/09/13 03:36:34;;;;;;;34.33;24.20;;;18.20;99.90;;;;;;4995962;28;20034;-72
2023/09/13 03:39:00;;;;;;;35.20;22.65;;;18.20;99.90;;;;;;5013196;28;20063;-71
2023/09/13 03:41:29;;;;;;;38.92;23.40;;;18.20;99.90;;;;;;4997338;28;20034;-72
2023/09/13 03:43:55;;;;;;;37.10;24.60;;;18.20;99.90;;;;;;4984920;28;20033;-72
2023/09/13 03:46:22;;;;;;;38.63;23.83;;;18.30;99.90;;;;;;5014621;28;20030;-72
2023/09/13 03:48:52;;;;;;;36.50;24.42;;;18.30;99.90;;;;;;4990643;28;20034;-72
2023/09/13 03:51:18;;;;;;;36.47;24.27;;;18.20;99.90;;;;;;5010906;28;20026;-73
2023/09/13 03:53:45;;;;;;;32.70;22.45;;;18.20;99.90;;;;;;5015323;28;20033;-72
2023/09/13 03:56:12;;;;;;;33.00;19.60;;;18.20;99.90;;;;;;4984756;28;20038;-72
2023/09/13 03:58:38;;;;;;;31.70;20.80;;;18.20;99.90;;;;;;4994195;28;20128;-71
2023/09/13 04:01:05;;;;;;;35.70;24.48;;;18.20;99.90;;;;;;4996615;28;20114;-74
2023/09/13 04:03:32;;;;;;;31.75;22.25;;;18.20;99.90;;;;;;5013573;28;20180;-72
2023/09/13 04:05:59;;;;;;;30.08;19.73;;;18.10;99.90;;;;;;4985690;28;20060;-72
2023/09/13 04:08:25;;;;;;;26.98;17.70;;;18.20;99.90;;;;;;5014380;28;20128;-74
2023/09/13 04:10:51;;;;;;;26.70;17.17;;;18.20;99.90;;;;;;4997196;28;20033;-75
2023/09/13 04:13:18;;;;;;;34.38;16.70;;;18.20;99.90;;;;;;4996938;28;20034;-72
2023/09/13 04:15:45;;;;;;;23.88;15.00;;;18.30;99.90;;;;;;5014539;28;20014;-71
2023/09/13 04:18:12;;;;;;;29.27;15.73;;;18.30;99.90;;;;;;4996707;28;20366;-73
2023/09/13 04:20:38;;;;;;;32.10;16.70;;;18.30;99.90;;;;;;4996452;28;20363;-74
2023/09/13 04:23:04;;;;;;;34.95;15.98;;;18.30;99.90;;;;;;4996747;28;20041;-74
2023/09/13 04:25:30;;;;;;;24.45;15.35;;;18.30;99.90;;;;;;5014492;28;20061;-72
2023/09/13 04:27:56;;;;;;;23.27;16.95;;;18.30;99.90;;;;;;4996753;28;20025;-72
2023/09/13 04:30:22;;;;;;;24.10;15.73;;;18.40;99.90;;;;;;5013771;28;20030;-73
2023/09/13 04:32:48;;;;;;;24.20;15.80;;;18.50;99.90;;;;;;4980368;28;20030;-73
2023/09/13 04:35:15;;;;;;;30.13;16.02;;;18.60;99.90;;;;;;4996323;28;20109;-73
2023/09/13 04:37:43;;;;;;;27.83;15.35;;;18.90;99.90;;;;;;4991705;28;20033;-73
2023/09/13 04:40:10;;;;;;;24.55;14.88;;;19.10;99.90;;;;;;4994804;28;20099;-73
2023/09/13 04:42:37;;;;;;;26.13;14.90;;;19.20;99.90;;;;;;4988290;28;20129;-76
2023/09/13 04:45:04;;;;;;;26.20;13.60;;;19.60;99.90;;;;;;4989592;28;20018;-73
2023/09/13 04:47:31;;;;;;;26.10;13.95;;;20.00;99.90;;;;;;4972921;28;20038;-73
2023/09/13 04:49:57;;;;;;;24.60;14.93;;;20.20;99.90;;;;;;4996205;28;20188;-73
2023/09/13 04:52:23;;;;;;;24.60;13.50;;;20.50;99.90;;;;;;5009200;28;20034;-72
2023/09/13 04:54:49;;;;;;;23.88;13.85;;;20.80;99.90;;;;;;4993226;28;20401;-73
2023/09/13 04:57:14;;;;;;;20.58;12.80;;;21.00;99.90;;;;;;5013602;28;20068;-73
2023/09/13 04:59:45;;;;;;;28.40;13.32;;;21.40;99.90;;;;;;4995830;28;20072;-73
2023/09/13 05:02:12;;;;;;;65.63;19.55;;;21.70;99.90;;;;;;4993258;28;20080;-74
2023/09/13 05:04:40;;;;;;;41.50;15.82;;;22.00;99.90;;;;;;4993112;28;20107;-74
2023/09/13 05:07:07;;;;;;;39.92;16.02;;;22.30;99.90;;;;;;5013719;28;20033;-72
2023/09/13 05:09:34;;;;;;;23.70;14.00;;;22.70;99.90;;;;;;5011668;28;20046;-74
2023/09/13 05:12:00;;;;;;;23.65;13.00;;;23.10;99.90;;;;;;5012675;28;20397;-73
2023/09/13 05:14:26;;;;;;;24.70;13.75;;;23.40;99.30;;;;;;5013001;28;20022;-73
2023/09/13 05:16:52;;;;;;;26.27;12.88;;;23.60;98.40;;;;;;5011504;28;20563;-73
2023/09/13 05:19:18;;;;;;;30.40;14.13;;;24.00;97.50;;;;;;5012781;28;20104;-73
2023/09/13 05:21:45;;;;;;;38.88;14.23;;;;;;;;;;5012042;28;20429;-73
2023/09/13 05:24:11;;;;;;;48.78;15.85;;;24.50;99.90;;;;;;4993391;28;20033;-73
2023/09/13 05:26:37;;;;;;;36.08;13.88;;;24.70;96.30;;;;;;5011612;28;20374;-73
2023/09/13 05:29:03;;;;;;;40.45;16.23;;;24.80;95.50;;;;;;5012082;28;20370;-73
2023/09/13 05:31:28;;;;;;;52.85;17.30;;;24.30;95.80;;;;;;5012966;28;20084;-74
2023/09/13 05:33:54;;;;;;;27.83;13.13;;;23.70;96.90;;;;;;5011797;28;20489;-77
2023/09/13 05:36:20;;;;;;;27.85;12.75;;;23.50;97.40;;;;;;5001821;28;20022;-73
2023/09/13 05:38:49;;;;;;;24.63;14.32;;;23.50;98.20;;;;;;5011920;28;20176;-73
2023/09/13 05:41:15;;;;;;;29.55;15.15;;;23.30;98.50;;;;;;5010842;28;20033;-72
2023/09/13 05:43:42;;;;;;;26.58;15.07;;;23.20;99.20;;;;;;5007011;28;20021;-73
2023/09/13 05:46:09;;;;;;;33.15;15.65;;;23.10;99.60;;;;;;5013627;28;20022;-73
2023/09/13 05:48:35;;;;;;;25.60;15.00;;;23.10;99.70;;;;;;5011304;28;20373;-74
2023/09/13 05:51:01;;;;;;;28.50;15.50;;;23.10;99.40;;;;;;5011206;28;20029;-73
2023/09/13 05:53:28;;;;;;;27.98;15.52;;;23.10;99.30;;;;;;5010708;28;20034;-73
2023/09/13 05:55:54;;;;;;;30.77;16.13;;;23.10;99.10;;;;;;5007714;28;20021;-73
2023/09/13 05:58:20;;;;;;;28.17;14.98;;;23.20;99.40;;;;;;5012745;28;20540;-75
2023/09/13 06:00:47;;;;;;;24.20;15.70;;;23.20;99.60;;;;;;5003552;28;20029;-73
2023/09/13 06:03:15;;;;;;;26.65;15.75;;;23.10;99.90;;;;;;5004133;28;20035;-73
2023/09/13 06:05:41;;;;;;;35.65;16.27;;;23.20;99.90;;;;;;5012056;28;20026;-73
2023/09/13 06:08:07;;;;;;;29.48;17.25;;;23.20;99.70;;;;;;5012065;28;20087;-72
2023/09/13 06:10:33;;;;;;;24.20;14.95;;;23.40;99.70;;;;;;5003276;28;20040;-73
2023/09/13 06:12:58;;;;;;;28.30;14.57;;;23.50;98.90;;;;;;5008656;28;20474;-73
2023/09/13 06:15:24;;;;;;;25.45;15.07;;;23.50;99.50;;;;;;5011429;28;20026;-73
2023/09/13 06:17:54;;;;;;;24.67;14.80;;;24.20;99.90;;;;;;5012499;28;20026;-72
2023/09/13 06:20:21;;;;;;;23.33;15.50;;;23.60;99.90;;;;;;5003659;28;20116;-73
2023/09/13 06:22:47;;;;;;;28.58;15.50;;;23.60;99.00;;;;;;5012466;28;20036;-73
2023/09/13 06:25:16;;;;;;;29.45;14.55;;;23.70;98.90;;;;;;5012246;28;20116;-73
2023/09/13 06:27:43;;;;;;;22.60;12.75;;;;;;;;;;5012493;28;20022;-76
2023/09/13 06:30:09;;;;;;;23.15;13.07;;;23.90;98.00;;;;;;5011891;28;20030;-72
2023/09/13 06:32:35;;;;;;;23.55;13.55;;;24.00;97.70;;;;;;5011649;28;20018;-76
2023/09/13 06:35:02;;;;;;;23.67;12.57;;;;;;;;;;5011580;28;20034;-72
2023/09/13 06:37:28;;;;;;;29.50;12.88;;;24.30;99.90;;;;;;5007554;28;20077;-74
2023/09/13 06:39:54;;;;;;;26.58;13.27;;;24.50;97.10;;;;;;5007304;28;20037;-72
2023/09/13 06:42:20;;;;;;;33.60;14.95;;;24.60;97.30;;;;;;5003866;28;20030;-74
2023/09/13 06:44:46;;;;;;;29.63;15.27;;;24.50;97.80;;;;;;5010561;28;20466;-72
2023/09/13 06:47:12;;;;;;;27.85;14.82;;;24.60;98.80;;;;;;5001353;28;20034;-73
2023/09/13 06:49:40;;;;;;;33.03;16.05;;;;;;;;;;5007454;28;20018;-74
2023/09/13 06:52:06;;;;;;;35.85;16.88;;;24.90;99.90;;;;;;4999707;28;20452;-72
2023/09/13 06:54:32;;;;;;;35.35;19.00;;;24.90;98.00;;;;;;5004731;28;20109;-71
2023/09/13 06:56:57;;;;;;;29.10;16.75;;;25.00;97.60;;;;;;5007720;28;20023;-73
2023/09/13 06:59:23;;;;;;;29.75;16.63;;;25.20;96.70;;;;;;5006568;28;20374;-75
2023/09/13 07:01:49;;;;;;;28.55;16.13;;;25.40;97.60;;;;;;5007661;28;20493;-75
2023/09/13 07:04:16;;;;;;;20.27;13.95;;;25.60;96.70;;;;;;5011188;28;20080;-72
2023/09/13 07:06:41;;;;;;;32.30;13.43;;;25.40;96.10;;;;;;5009196;28;20022;-72
2023/09/13 07:09:07;;;;;;;23.42;13.75;;;25.60;96.20;;;;;;4996384;28;20438;-76
2023/09/13 07:11:33;;;;;;;19.25;12.88;;;25.60;96.00;;;;;;5007584;28;20029;-75
2023/09/13 07:13:59;;;;;;;21.10;14.20;;;25.90;95.60;;;;;;5008953;28;20537;-72
2023/09/13 07:16:25;;;;;;;24.13;13.18;;;26.00;95.20;;;;;;5009992;28;20018;-71
2023/09/13 07:18:52;;;;;;;21.77;12.35;;;26.20;94.80;;;;;;5009234;28;20042;-72
2023/09/13 07:21:17;;;;;;;22.70;12.40;;;26.40;93.60;;;;;;4998848;28;20085;-71
2023/09/13 07:23:45;;;;;;;19.48;10.82;;;26.50;93.20;;;;;;5006893;28;20029;-73
2023/09/13 07:26:10;;;;;;;18.15;11.32;;;26.70;94.00;;;;;;5010293;28;20053;-72
2023/09/13 07:28:37;;;;;;;21.45;11.55;;;26.60;94.00;;;;;;5013205;28;20076;-71
2023/09/13 07:31:07;;;;;;;26.35;11.25;;;26.80;93.30;;;;;;5011437;28;20034;-72
2023/09/13 07:33:33;;;;;;;18.17;11.73;;;26.80;93.90;;;;;;5009633;28;20026;-71
2023/09/13 07:35:59;;;;;;;20.58;11.35;;;27.00;93.10;;;;;;5004573;28;20500;-73
2023/09/13 07:38:24;;;;;;;23.42;12.15;;;27.10;93.10;;;;;;5010102;28;20066;-73
2023/09/13 07:40:51;;;;;;;29.48;12.25;;;;;;;;;;5009781;28;20097;-73
2023/09/13 07:43:16;;;;;;;17.02;11.00;;;27.20;92.80;;;;;;5002661;28;20033;-73
2023/09/13 07:45:42;;;;;;;20.83;12.27;;;27.30;92.60;;;;;;5011373;28;20378;-72
2023/09/13 07:48:08;;;;;;;25.27;11.57;;;27.20;91.90;;;;;;5011463;28;20049;-72
2023/09/13 07:50:40;;;;;;;18.38;10.27;;;27.00;91.90;;;;;;5011202;28;20026;-73
2023/09/13 07:53:07;;;;;;;17.77;10.45;;;;;;;;;;5011514;28;20436;-73
2023/09/13 07:55:33;;;;;;;21.45;10.80;;;27.50;92.10;;;;;;5011478;28;20014;-72
2023/09/13 07:58:00;;;;;;;18.88;9.73;;;27.20;91.70;;;;;;5014833;28;20528;-74
2023/09/13 08:00:26;;;;;;;21.77;10.55;;;27.60;92.90;;;;;;5014753;28;20021;-72
2023/09/13 08:02:51;;;;;;;18.50;9.63;;;27.80;91.20;;;;;;5014576;28;20037;-72
2023/09/13 08:05:17;;;;;;;19.73;9.98;;;27.70;90.50;;;;;;5014950;28;20112;-73
2023/09/13 08:07:46;;;;;;;17.80;8.60;;;27.90;91.20;;;;;;5014230;28;20481;-72
2023/09/13 08:10:13;;;;;;;24.77;9.48;;;28.00;91.00;;;;;;5014579;28;20057;-72
2023/09/13 08:12:40;;;;;;;23.63;9.65;;;28.00;90.90;;;;;;5014407;28;20022;-72
2023/09/13 08:15:06;;;;;;;28.80;10.52;;;28.10;88.90;;;;;;5014864;28;20036;-71
2023/09/13 08:17:33;;;;;;;20.48;8.95;;;28.30;90.90;;;;;;5013786;28;20025;-73
2023/09/13 08:20:01;;;;;;;23.48;9.90;;;28.40;91.80;;;;;;5011078;28;20028;-72
2023/09/13 08:22:27;;;;;;;25.83;9.02;;;28.40;87.70;;;;;;5009072;28;20025;-75
2023/09/13 08:24:54;;;;;;;21.48;9.35;;;;;;;;;;5013954;28;20513;-73
2023/09/13 08:27:20;;;;;;;27.38;9.73;;;28.50;85.50;;;;;;5013559;28;20026;-72
2023/09/13 08:29:46;;;;;;;20.95;9.18;;;28.70;90.20;;;;;;4995048;28;20363;-72
2023/09/13 08:32:11;;;;;;;16.60;8.27;;;28.70;84.70;;;;;;4999024;28;20030;-71
2023/09/13 08:34:37;;;;;;;21.83;8.75;;;28.70;84.10;;;;;;5007152;28;20033;-71
2023/09/13 08:37:03;;;;;;;26.20;8.65;;;28.80;85.90;;;;;;5007154;28;20038;-71
2023/09/13 08:39:29;;;;;;;20.35;8.65;;;29.10;91.30;;;;;;5011604;28;20026;-71
2023/09/13 08:41:56;;;;;;;16.60;7.90;;;28.50;98.20;;;;;;5013488;28;20359;-70
2023/09/13 08:44:22;;;;;;;18.45;8.20;;;29.10;86.10;;;;;;5006232;28;20026;-71
2023/09/13 08:46:55;;;;;;;17.42;8.13;;;29.20;85.40;;;;;;5010222;28;20438;-71
2023/09/13 08:49:21;;;;;;;13.45;7.30;;;;;;;;;;5000607;28;20501;-71
2023/09/13 08:51:48;;;;;;;16.27;8.70;;;;;;;;;;5009127;28;20026;-71
2023/09/13 08:54:15;;;;;;;17.33;7.75;;;29.30;80.80;;;;;;5013318;28;20083;-71
2023/09/13 08:56:45;;;;;;;14.43;8.40;;;29.20;82.90;;;;;;5012555;28;20465;-72
2023/09/13 08:59:15;;;;;;;13.30;7.05;;;;;;;;;;5002114;28;20038;-73
2023/09/13 09:01:49;;;;;;;14.70;7.55;;;29.30;99.90;;;;;;5011322;28;20040;-72
2023/09/13 09:04:19;;;;;;;15.52;7.97;;;;;;;;;;5013657;28;20107;-70
2023/09/13 09:06:45;;;;;;;11.77;7.85;;;;;;;;;;5011748;28;20418;-69
2023/09/13 09:09:12;;;;;;;12.68;7.07;;;;;;;;;;5004592;28;20092;-70
2023/09/13 09:11:41;;;;;;;11.73;6.68;;;29.70;91.60;;;;;;5012974;28;20029;-71
2023/09/13 09:14:08;;;;;;;16.45;7.18;;;;;;;;;;5010182;28;20473;-73
2023/09/13 09:16:37;;;;;;;11.95;8.13;;;30.00;90.80;;;;;;5012088;28;20034;-71
2023/09/13 09:19:05;;;;;;;16.15;7.30;;;;;;;;;;4999602;28;20481;-71
2023/09/13 09:21:33;;;;;;;13.85;7.32;;;29.90;93.00;;;;;;4999234;28;20138;-72
2023/09/13 09:23:59;;;;;;;13.63;7.18;;;;;;;;;;5012809;28;20030;-69
2023/09/13 09:26:25;;;;;;;19.15;8.18;;;;;;;;;;5013116;28;20088;-71
2023/09/13 09:28:51;;;;;;;16.40;7.45;;;30.10;74.80;;;;;;5013011;28;20033;-71
2023/09/13 09:31:19;;;;;;;17.92;8.30;;;30.10;74.60;;;;;;5013297;28;20113;-74
2023/09/13 09:33:46;;;;;;;16.15;7.13;;;;;;;;;;5012936;28;20022;-72
2023/09/13 09:36:13;;;;;;;15.48;6.82;;;30.20;74.30;;;;;;5012988;28;20033;-71
2023/09/13 09:38:44;;;;;;;13.38;7.65;;;29.90;75.30;;;;;;5013157;28;20057;-72
2023/09/13 09:41:10;;;;;;;15.93;7.32;;;30.00;74.60;;;;;;5013063;28;20410;-72
2023/09/13 09:43:36;;;;;;;13.07;7.65;;;30.20;75.10;;;;;;5023696;28;20033;-71
2023/09/13 09:46:02;;;;;;;15.07;7.30;;;30.20;74.50;;;;;;5014955;28;20017;-71
2023/09/13 09:48:28;;;;;;;14.20;7.80;;;30.20;74.00;;;;;;5013004;28;20096;-71
2023/09/13 09:50:55;;;;;;;15.88;7.65;;;30.20;74.70;;;;;;4995139;28;20037;-72
2023/09/13 09:53:22;;;;;;;11.25;6.78;;;30.20;73.30;;;;;;5012623;28;20080;-71
2023/09/13 09:55:49;;;;;;;13.18;7.25;;;30.30;71.90;;;;;;5012520;28;20026;-71
2023/09/13 09:58:17;;;;;;;14.80;8.70;;;30.40;72.10;;;;;;5012539;28;20041;-72
2023/09/13 10:00:47;;;;;;;12.95;7.80;;;;;;;;;;5012722;28;20388;-72
2023/09/13 10:03:17;;;;;;;17.30;7.93;;;;;;;;;;5012513;28;20037;-72
2023/09/13 10:05:58;;;;;;;18.42;9.02;;;30.60;71.10;;;;;;4994966;28;20401;-73
2023/09/13 10:08:37;;;;;;;13.35;8.18;;;;;;;;;;5012695;28;20034;-72
2023/09/13 10:11:03;;;;;;;19.40;7.95;;;;;;;;;;5000496;28;20334;-73
2023/09/13 10:13:32;;;;;;;14.20;7.80;;;30.80;71.40;;;;;;5012601;28;20022;-73
2023/09/13 10:16:00;;;;;;;14.45;8.82;;;30.70;72.20;;;;;;5012506;28;20096;-72
2023/09/13 10:18:26;;;;;;;12.68;7.82;;;31.00;72.30;;;;;;5011633;28;20054;-72
2023/09/13 10:20:57;;;;;;;14.30;7.82;;;30.80;70.90;;;;;;5012544;28;20030;-72
2023/09/13 10:23:33;;;;;;;14.32;7.82;;;30.90;68.50;;;;;;5012110;28;20109;-71
2023/09/13 10:26:02;;;;;;;12.93;7.90;;;30.90;70.80;;;;;;5012898;28;20034;-72
2023/09/13 10:28:32;;;;;;;13.80;8.15;;;31.10;69.80;;;;;;4994479;28;20161;-71
2023/09/13 10:31:01;;;;;;;13.65;6.47;;;31.20;70.40;;;;;;5012148;28;20108;-72
2023/09/13 10:33:32;;;;;;;14.07;6.70;;;31.20;68.80;;;;;;5012023;28;20025;-71
2023/09/13 10:36:00;;;;;;;12.45;6.43;;;31.20;70.20;;;;;;4994391;28;20113;-71
2023/09/13 10:38:44;;;;;;;12.40;6.03;;;31.10;69.20;;;;;;5012304;28;20045;-71
2023/09/13 10:41:16;;;;;;;14.55;6.55;;;30.90;70.50;;;;;;5012507;28;20470;-72
2023/09/13 10:43:43;;;;;;;12.10;6.53;;;31.00;81.50;;;;;;5011921;28;20081;-71
2023/09/13 10:46:10;;;;;;;14.77;6.78;;;31.10;71.20;;;;;;5012154;28;20037;-71
2023/09/13 10:48:39;;;;;;;9.68;6.30;;;31.20;68.70;;;;;;4993953;28;20428;-71
2023/09/13 10:51:05;;;;;;;16.08;6.25;;;31.20;67.30;;;;;;5011924;28;20038;-71
2023/09/13 10:53:32;;;;;;;13.27;6.60;;;31.20;67.60;;;;;;5011757;28;20030;-71
2023/09/13 10:55:58;;;;;;;11.70;7.05;;;31.20;69.10;;;;;;5012424;28;20029;-72
2023/09/13 10:58:25;;;;;;;11.73;6.63;;;31.20;67.90;;;;;;5011401;28;20033;-72
2023/09/13 11:00:55;;;;;;;15.13;7.50;;;31.20;67.30;;;;;;5012159;28;20096;-72
2023/09/13 11:03:22;;;;;;;14.45;6.97;;;31.10;74.70;;;;;;5011987;28;20026;-71
2023/09/13 11:05:52;;;;;;;13.02;6.40;;;31.10;70.30;;;;;;5011902;28;20359;-72
2023/09/13 11:08:32;;;;;;;14.63;6.97;;;31.20;69.60;;;;;;5012133;28;20451;-72
2023/09/13 11:11:17;;;;;;;15.63;7.43;;;31.20;70.50;;;;;;5011450;28;20379;-75
2023/09/13 11:13:49;;;;;;;13.43;7.05;;;31.20;74.80;;;;;;5011722;28;20061;-72
2023/09/13 11:16:16;;;;;;;16.48;6.65;;;31.20;74.10;;;;;;5012111;28;20022;-72
2023/09/13 11:18:50;;;;;;;11.40;6.75;;;31.00;78.20;;;;;;5011239;28;20092;-72
2023/09/13 11:21:24;;;;;;;14.05;6.30;;;31.10;81.40;;;;;;5011969;28;20382;-72
2023/09/13 11:23:52;;;;;;;14.88;6.97;;;31.20;78.90;;;;;;5011820;28;20362;-72
2023/09/13 11:26:45;;;;;;;10.98;6.00;;;31.00;80.00;;;;;;5011410;28;20026;-72
2023/09/13 11:29:24;;;;;;;10.40;6.82;;;31.10;79.50;;;;;;5011519;28;20032;-71
2023/09/13 11:32:04;;;;;;;13.35;6.22;;;31.20;81.00;;;;;;5013811;28;20108;-71
2023/09/13 11:34:32;;;;;;;15.98;6.50;;;31.10;77.70;;;;;;5015362;28;20121;-72
2023/09/13 11:37:00;;;;;;;10.30;6.20;;;31.20;78.50;;;;;;5015854;28;20069;-71
2023/09/13 11:39:27;;;;;;;13.45;7.18;;;31.20;79.20;;;;;;4997898;28;20559;-72
2023/09/13 11:41:55;;;;;;;16.70;7.15;;;31.30;81.00;;;;;;5015153;28;20021;-72
2023/09/13 11:44:26;;;;;;;14.27;6.65;;;31.30;78.50;;;;;;5015369;28;20104;-72
2023/09/13 11:46:53;;;;;;;13.83;6.50;;;31.30;78.10;;;;;;5014998;28;20040;-72
2023/09/13 11:49:24;;;;;;;11.93;6.50;;;31.30;65.90;;;;;;5015138;28;20275;-72
2023/09/13 11:51:53;;;;;;;10.48;6.25;;;31.40;66.00;;;;;;5014602;28;20026;-71
2023/09/13 11:54:21;;;;;;;12.68;7.35;;;31.50;65.60;;;;;;5015260;28;20083;-72
2023/09/13 11:56:49;;;;;;;19.45;7.25;;;31.40;64.20;;;;;;5014786;28;20018;-72
2023/09/13 11:59:15;;;;;;;12.98;7.22;;;31.40;64.90;;;;;;5014908;28;20080;-71
2023/09/13 12:01:45;;;;;;;14.73;6.90;;;31.40;64.00;;;;;;5015014;28;20017;-73
2023/09/13 12:04:11;;;;;;;14.05;6.38;;;31.40;63.70;;;;;;5012742;28;20050;-72
2023/09/13 12:06:46;;;;;;;13.30;7.90;;;31.50;64.80;;;;;;5015120;28;20014;-72
2023/09/13 12:09:16;;;;;;;10.98;7.13;;;;;;;;;;5014448;28;20389;-72
2023/09/13 12:11:43;;;;;;;13.73;7.40;;;31.70;65.70;;;;;;5014913;28;20032;-73
2023/09/13 12:14:09;;;;;;;11.05;7.72;;;31.70;63.80;;;;;;5014691;28;20482;-73
2023/09/13 12:16:38;;;;;;;13.93;7.50;;;31.60;65.50;;;;;;5014668;28;20034;-72
2023/09/13 12:19:05;;;;;;;16.00;7.65;;;31.70;64.20;;;;;;5014052;28;20049;-72
2023/09/13 12:21:32;;;;;;;14.82;9.10;;;31.70;66.30;;;;;;5014604;28;20554;-71
2023/09/13 12:23:57;;;;;;;15.70;9.35;;;31.60;63.80;;;;;;5014635;28;20026;-72
2023/09/13 12:26:24;;;;;;;11.43;7.78;;;31.70;66.20;;;;;;5014535;28;20552;-72
2023/09/13 12:28:52;;;;;;;17.27;8.50;;;31.70;65.80;;;;;;5014412;28;20083;-72
2023/09/13 12:31:19;;;;;;;15.48;7.70;;;31.70;65.20;;;;;;5014235;28;20109;-72
2023/09/13 12:33:51;;;;;;;15.15;7.75;;;31.70;65.70;;;;;;4996597;28;20025;-73
2023/09/13 12:36:17;;;;;;;13.00;7.75;;;31.80;66.40;;;;;;5014127;28;20033;-74
2023/09/13 12:38:43;;;;;;;12.13;7.68;;;31.80;65.70;;;;;;5013782;28;20034;-72
2023/09/13 12:41:10;;;;;;;14.02;7.97;;;31.80;64.70;;;;;;5014394;28;20485;-74